sensor_id;sensor_type;location;lat;lon;timestamp;P1;durP1;ratioP1;P2;durP2;ratioP2
79566;SDS011;69030;48.126;7.816;2023-04-25T00:01:47;5.78;;;2.72;;
79566;SDS011;69030;48.126;7.816;2023-04-25T00:04:12;6.28;;;2.83;;
79566;SDS011;69030;48.126;7.816;2023-04-25T00:06:38;3.85;;;2.75;;
79566;SDS011;69030;48.126;7.816;2023-04-25T00:09:04;4.57;;;3.22;;
79566;SDS011;69030;48.126;7.816;2023-04-25T00:13:57;6.03;;;2.83;;
79566;SDS011;69030;48.126;7.816;2023-04-25T00:16:24;6.78;;;3.10;;
79566;SDS011;69030;48.126;7.816;2023-04-25T00:18:50;5.15;;;3.33;;
79566;SDS011;69030;48.126;7.816;2023-04-25T00:21:19;6.80;;;3.42;;
79566;SDS011;69030;48.126;7.816;2023-04-25T00:23:45;7.25;;;3.17;;
79566;SDS011;69030;48.126;7.816;2023-04-25T00:26:10;5.38;;;3.38;;
79566;SDS011;69030;48.126;7.816;2023-04-25T00:28:36;4.90;;;2.95;;
79566;SDS011;69030;48.126;7.816;2023-04-25T00:31:02;4.20;;;3.17;;
79566;SDS011;69030;48.126;7.816;2023-04-25T00:33:28;7.15;;;3.53;;
79566;SDS011;69030;48.126;7.816;2023-04-25T00:35:53;3.35;;;2.97;;
79566;SDS011;69030;48.126;7.816;2023-04-25T00:38:18;4.40;;;2.58;;
79566;SDS011;69030;48.126;7.816;2023-04-25T00:40:44;7.80;;;2.88;;
79566;SDS011;69030;48.126;7.816;2023-04-25T00:43:09;6.47;;;3.15;;
79566;SDS011;69030;48.126;7.816;2023-04-25T00:45:35;4.55;;;3.15;;
79566;SDS011;69030;48.126;7.816;2023-04-25T00:48:04;5.50;;;4.18;;
79566;SDS011;69030;48.126;7.816;2023-04-25T00:50:29;4.13;;;3.22;;
79566;SDS011;69030;48.126;7.816;2023-04-25T00:52:55;5.15;;;3.30;;
79566;SDS011;69030;48.126;7.816;2023-04-25T00:55:20;5.93;;;2.58;;
79566;SDS011;69030;48.126;7.816;2023-04-25T00:57:46;5.88;;;3.10;;
79566;SDS011;69030;48.126;7.816;2023-04-25T01:00:12;6.65;;;2.58;;
79566;SDS011;69030;48.126;7.816;2023-04-25T01:02:39;6.72;;;3.22;;
79566;SDS011;69030;48.126;7.816;2023-04-25T01:05:06;5.45;;;3.40;;
79566;SDS011;69030;48.126;7.816;2023-04-25T01:07:31;5.03;;;2.83;;
79566;SDS011;69030;48.126;7.816;2023-04-25T01:09:56;9.82;;;3.92;;
79566;SDS011;69030;48.126;7.816;2023-04-25T01:12:22;6.93;;;3.53;;
79566;SDS011;69030;48.126;7.816;2023-04-25T01:14:48;6.35;;;4.38;;
79566;SDS011;69030;48.126;7.816;2023-04-25T01:17:13;4.70;;;4.10;;
79566;SDS011;69030;48.126;7.816;2023-04-25T01:19:39;4.18;;;2.70;;
79566;SDS011;69030;48.126;7.816;2023-04-25T01:22:05;4.38;;;2.95;;
79566;SDS011;69030;48.126;7.816;2023-04-25T01:24:33;5.97;;;2.83;;
79566;SDS011;69030;48.126;7.816;2023-04-25T01:26:59;4.47;;;2.67;;
79566;SDS011;69030;48.126;7.816;2023-04-25T01:29:25;2.92;;;1.38;;
79566;SDS011;69030;48.126;7.816;2023-04-25T01:31:52;5.80;;;2.60;;
79566;SDS011;69030;48.126;7.816;2023-04-25T01:34:18;6.32;;;3.13;;
79566;SDS011;69030;48.126;7.816;2023-04-25T01:36:43;3.97;;;3.10;;
79566;SDS011;69030;48.126;7.816;2023-04-25T01:39:09;5.25;;;2.03;;
79566;SDS011;69030;48.126;7.816;2023-04-25T01:41:34;4.13;;;3.72;;
79566;SDS011;69030;48.126;7.816;2023-04-25T01:44:00;3.85;;;3.20;;
79566;SDS011;69030;48.126;7.816;2023-04-25T01:46:26;4.00;;;3.20;;
79566;SDS011;69030;48.126;7.816;2023-04-25T01:48:51;4.22;;;3.90;;
79566;SDS011;69030;48.126;7.816;2023-04-25T01:51:17;3.00;;;2.50;;
79566;SDS011;69030;48.126;7.816;2023-04-25T01:53:42;4.20;;;2.70;;
79566;SDS011;69030;48.126;7.816;2023-04-25T01:56:08;6.90;;;3.22;;
79566;SDS011;69030;48.126;7.816;2023-04-25T01:58:33;3.92;;;3.50;;
79566;SDS011;69030;48.126;7.816;2023-04-25T02:00:59;5.00;;;3.58;;
79566;SDS011;69030;48.126;7.816;2023-04-25T02:03:24;5.75;;;3.63;;
79566;SDS011;69030;48.126;7.816;2023-04-25T02:05:49;7.78;;;3.50;;
79566;SDS011;69030;48.126;7.816;2023-04-25T02:08:15;5.53;;;2.75;;
79566;SDS011;69030;48.126;7.816;2023-04-25T02:10:41;7.18;;;3.50;;
79566;SDS011;69030;48.126;7.816;2023-04-25T02:13:06;8.85;;;3.72;;
79566;SDS011;69030;48.126;7.816;2023-04-25T02:15:32;6.55;;;2.85;;
79566;SDS011;69030;48.126;7.816;2023-04-25T02:17:57;4.90;;;3.40;;
79566;SDS011;69030;48.126;7.816;2023-04-25T02:20:23;6.72;;;4.05;;
79566;SDS011;69030;48.126;7.816;2023-04-25T02:22:49;8.57;;;3.25;;
79566;SDS011;69030;48.126;7.816;2023-04-25T02:25:15;5.15;;;2.35;;
79566;SDS011;69030;48.126;7.816;2023-04-25T02:27:41;5.78;;;4.28;;
79566;SDS011;69030;48.126;7.816;2023-04-25T02:30:07;8.45;;;4.25;;
79566;SDS011;69030;48.126;7.816;2023-04-25T02:32:33;4.88;;;3.67;;
79566;SDS011;69030;48.126;7.816;2023-04-25T02:34:59;4.18;;;3.05;;
79566;SDS011;69030;48.126;7.816;2023-04-25T02:37:28;5.47;;;3.15;;
79566;SDS011;69030;48.126;7.816;2023-04-25T02:40:01;6.93;;;3.30;;
79566;SDS011;69030;48.126;7.816;2023-04-25T02:42:26;6.47;;;3.90;;
79566;SDS011;69030;48.126;7.816;2023-04-25T02:44:52;5.90;;;3.60;;
79566;SDS011;69030;48.126;7.816;2023-04-25T02:47:17;4.72;;;3.53;;
79566;SDS011;69030;48.126;7.816;2023-04-25T02:49:43;5.70;;;3.58;;
79566;SDS011;69030;48.126;7.816;2023-04-25T02:52:08;5.93;;;3.78;;
79566;SDS011;69030;48.126;7.816;2023-04-25T02:54:33;3.92;;;3.42;;
79566;SDS011;69030;48.126;7.816;2023-04-25T02:56:59;5.68;;;1.65;;
79566;SDS011;69030;48.126;7.816;2023-04-25T02:59:25;4.00;;;3.55;;
79566;SDS011;69030;48.126;7.816;2023-04-25T03:01:51;6.10;;;3.72;;
79566;SDS011;69030;48.126;7.816;2023-04-25T03:04:16;5.93;;;3.50;;
79566;SDS011;69030;48.126;7.816;2023-04-25T03:06:43;4.60;;;3.08;;
79566;SDS011;69030;48.126;7.816;2023-04-25T03:09:09;5.93;;;3.55;;
79566;SDS011;69030;48.126;7.816;2023-04-25T03:11:34;4.38;;;3.97;;
79566;SDS011;69030;48.126;7.816;2023-04-25T03:14:00;4.85;;;4.13;;
79566;SDS011;69030;48.126;7.816;2023-04-25T03:16:25;7.25;;;3.58;;
79566;SDS011;69030;48.126;7.816;2023-04-25T03:18:50;4.68;;;4.15;;
79566;SDS011;69030;48.126;7.816;2023-04-25T03:21:16;7.72;;;3.55;;
79566;SDS011;69030;48.126;7.816;2023-04-25T03:23:41;5.03;;;3.92;;
79566;SDS011;69030;48.126;7.816;2023-04-25T03:26:07;9.20;;;4.40;;
79566;SDS011;69030;48.126;7.816;2023-04-25T03:28:32;8.45;;;4.25;;
79566;SDS011;69030;48.126;7.816;2023-04-25T03:30:57;5.03;;;3.45;;
79566;SDS011;69030;48.126;7.816;2023-04-25T03:33:23;6.97;;;3.72;;
79566;SDS011;69030;48.126;7.816;2023-04-25T03:35:48;5.47;;;3.83;;
79566;SDS011;69030;48.126;7.816;2023-04-25T03:38:15;9.27;;;3.63;;
79566;SDS011;69030;48.126;7.816;2023-04-25T03:40:40;10.18;;;4.53;;
79566;SDS011;69030;48.126;7.816;2023-04-25T03:43:06;5.85;;;3.08;;
79566;SDS011;69030;48.126;7.816;2023-04-25T03:45:31;6.53;;;3.67;;
79566;SDS011;69030;48.126;7.816;2023-04-25T03:47:56;5.40;;;4.70;;
79566;SDS011;69030;48.126;7.816;2023-04-25T03:50:22;6.70;;;3.92;;
79566;SDS011;69030;48.126;7.816;2023-04-25T03:52:47;5.63;;;3.88;;
79566;SDS011;69030;48.126;7.816;2023-04-25T03:55:12;6.63;;;5.15;;
79566;SDS011;69030;48.126;7.816;2023-04-25T03:57:38;7.15;;;5.70;;
79566;SDS011;69030;48.126;7.816;2023-04-25T04:00:03;10.70;;;7.07;;
79566;SDS011;69030;48.126;7.816;2023-04-25T04:02:29;12.88;;;10.35;;
79566;SDS011;69030;48.126;7.816;2023-04-25T04:04:55;14.10;;;8.57;;
79566;SDS011;69030;48.126;7.816;2023-04-25T04:07:21;11.27;;;7.60;;
79566;SDS011;69030;48.126;7.816;2023-04-25T04:09:47;14.43;;;10.68;;
79566;SDS011;69030;48.126;7.816;2023-04-25T04:12:12;14.63;;;10.38;;
79566;SDS011;69030;48.126;7.816;2023-04-25T04:14:37;7.90;;;6.32;;
79566;SDS011;69030;48.126;7.816;2023-04-25T04:17:02;6.80;;;4.63;;
79566;SDS011;69030;48.126;7.816;2023-04-25T04:19:28;6.45;;;5.32;;
79566;SDS011;69030;48.126;7.816;2023-04-25T04:21:53;8.63;;;5.20;;
79566;SDS011;69030;48.126;7.816;2023-04-25T04:24:19;9.40;;;6.40;;
79566;SDS011;69030;48.126;7.816;2023-04-25T04:26:44;7.40;;;4.40;;
79566;SDS011;69030;48.126;7.816;2023-04-25T04:29:10;9.00;;;6.28;;
79566;SDS011;69030;48.126;7.816;2023-04-25T04:31:35;6.80;;;5.45;;
79566;SDS011;69030;48.126;7.816;2023-04-25T04:34:01;8.18;;;6.13;;
79566;SDS011;69030;48.126;7.816;2023-04-25T04:36:27;9.90;;;5.60;;
79566;SDS011;69030;48.126;7.816;2023-04-25T04:38:52;7.82;;;4.60;;
79566;SDS011;69030;48.126;7.816;2023-04-25T04:41:18;5.30;;;4.55;;
79566;SDS011;69030;48.126;7.816;2023-04-25T04:43:44;7.63;;;4.60;;
79566;SDS011;69030;48.126;7.816;2023-04-25T04:46:09;6.35;;;3.90;;
79566;SDS011;69030;48.126;7.816;2023-04-25T04:48:35;5.85;;;5.10;;
79566;SDS011;69030;48.126;7.816;2023-04-25T04:51:00;4.97;;;4.28;;
79566;SDS011;69030;48.126;7.816;2023-04-25T04:53:26;6.05;;;3.10;;
79566;SDS011;69030;48.126;7.816;2023-04-25T04:55:52;53.08;;;24.65;;
79566;SDS011;69030;48.126;7.816;2023-04-25T04:58:17;38.20;;;15.82;;
79566;SDS011;69030;48.126;7.816;2023-04-25T05:00:43;24.95;;;12.65;;
79566;SDS011;69030;48.126;7.816;2023-04-25T05:03:09;6.47;;;5.63;;
79566;SDS011;69030;48.126;7.816;2023-04-25T05:05:36;6.43;;;5.18;;
79566;SDS011;69030;48.126;7.816;2023-04-25T05:08:04;14.40;;;5.90;;
79566;SDS011;69030;48.126;7.816;2023-04-25T05:10:30;7.22;;;5.93;;
79566;SDS011;69030;48.126;7.816;2023-04-25T05:12:55;6.20;;;5.00;;
79566;SDS011;69030;48.126;7.816;2023-04-25T05:15:20;6.88;;;4.57;;
79566;SDS011;69030;48.126;7.816;2023-04-25T05:17:46;5.18;;;4.32;;
79566;SDS011;69030;48.126;7.816;2023-04-25T05:20:11;4.35;;;3.95;;
79566;SDS011;69030;48.126;7.816;2023-04-25T05:22:38;4.88;;;2.17;;
79566;SDS011;69030;48.126;7.816;2023-04-25T05:25:04;5.80;;;4.22;;
79566;SDS011;69030;48.126;7.816;2023-04-25T05:27:30;5.15;;;3.17;;
79566;SDS011;69030;48.126;7.816;2023-04-25T05:29:55;6.57;;;3.17;;
79566;SDS011;69030;48.126;7.816;2023-04-25T05:32:21;10.93;;;4.35;;
79566;SDS011;69030;48.126;7.816;2023-04-25T05:34:46;6.70;;;3.22;;
79566;SDS011;69030;48.126;7.816;2023-04-25T05:37:11;4.30;;;3.80;;
79566;SDS011;69030;48.126;7.816;2023-04-25T05:39:37;5.35;;;4.60;;
79566;SDS011;69030;48.126;7.816;2023-04-25T05:42:02;6.10;;;4.50;;
79566;SDS011;69030;48.126;7.816;2023-04-25T05:44:28;6.10;;;4.32;;
79566;SDS011;69030;48.126;7.816;2023-04-25T05:46:54;6.35;;;3.22;;
79566;SDS011;69030;48.126;7.816;2023-04-25T05:49:20;5.53;;;4.57;;
79566;SDS011;69030;48.126;7.816;2023-04-25T05:51:45;7.45;;;3.38;;
79566;SDS011;69030;48.126;7.816;2023-04-25T05:54:11;8.32;;;4.75;;
79566;SDS011;69030;48.126;7.816;2023-04-25T05:56:36;5.95;;;3.67;;
79566;SDS011;69030;48.126;7.816;2023-04-25T05:59:02;5.40;;;2.95;;
79566;SDS011;69030;48.126;7.816;2023-04-25T06:01:28;7.20;;;3.70;;
79566;SDS011;69030;48.126;7.816;2023-04-25T06:03:53;8.85;;;3.88;;
79566;SDS011;69030;48.126;7.816;2023-04-25T06:06:18;7.30;;;4.82;;
79566;SDS011;69030;48.126;7.816;2023-04-25T06:08:44;6.68;;;4.22;;
79566;SDS011;69030;48.126;7.816;2023-04-25T06:11:10;8.45;;;6.60;;
79566;SDS011;69030;48.126;7.816;2023-04-25T06:13:35;7.53;;;4.78;;
79566;SDS011;69030;48.126;7.816;2023-04-25T06:16:00;8.35;;;3.20;;
79566;SDS011;69030;48.126;7.816;2023-04-25T06:18:26;5.53;;;4.72;;
79566;SDS011;69030;48.126;7.816;2023-04-25T06:20:51;6.25;;;3.42;;
79566;SDS011;69030;48.126;7.816;2023-04-25T06:23:16;5.68;;;3.75;;
79566;SDS011;69030;48.126;7.816;2023-04-25T06:25:42;8.32;;;3.40;;
79566;SDS011;69030;48.126;7.816;2023-04-25T06:28:07;5.88;;;3.40;;
79566;SDS011;69030;48.126;7.816;2023-04-25T06:30:33;6.97;;;3.53;;
79566;SDS011;69030;48.126;7.816;2023-04-25T06:32:58;6.35;;;3.08;;
79566;SDS011;69030;48.126;7.816;2023-04-25T06:35:23;9.13;;;4.60;;
79566;SDS011;69030;48.126;7.816;2023-04-25T06:37:49;9.63;;;4.82;;
79566;SDS011;69030;48.126;7.816;2023-04-25T06:40:14;8.73;;;4.75;;
79566;SDS011;69030;48.126;7.816;2023-04-25T06:42:39;10.10;;;5.40;;
79566;SDS011;69030;48.126;7.816;2023-04-25T06:45:05;7.82;;;5.45;;
79566;SDS011;69030;48.126;7.816;2023-04-25T06:47:31;9.02;;;5.45;;
79566;SDS011;69030;48.126;7.816;2023-04-25T06:49:56;7.45;;;5.28;;
79566;SDS011;69030;48.126;7.816;2023-04-25T06:52:21;5.90;;;4.05;;
79566;SDS011;69030;48.126;7.816;2023-04-25T06:54:47;5.10;;;3.03;;
79566;SDS011;69030;48.126;7.816;2023-04-25T06:57:12;4.45;;;2.42;;
79566;SDS011;69030;48.126;7.816;2023-04-25T06:59:38;3.13;;;2.25;;
79566;SDS011;69030;48.126;7.816;2023-04-25T07:02:03;2.95;;;2.53;;
79566;SDS011;69030;48.126;7.816;2023-04-25T07:04:29;4.40;;;2.25;;
79566;SDS011;69030;48.126;7.816;2023-04-25T07:06:55;3.67;;;2.75;;
79566;SDS011;69030;48.126;7.816;2023-04-25T07:09:21;2.28;;;2.05;;
79566;SDS011;69030;48.126;7.816;2023-04-25T07:11:46;2.60;;;2.40;;
79566;SDS011;69030;48.126;7.816;2023-04-25T07:14:12;1.70;;;1.20;;
79566;SDS011;69030;48.126;7.816;2023-04-25T07:16:37;2.40;;;2.03;;
79566;SDS011;69030;48.126;7.816;2023-04-25T07:19:02;2.08;;;1.67;;
79566;SDS011;69030;48.126;7.816;2023-04-25T07:21:28;3.15;;;1.70;;
79566;SDS011;69030;48.126;7.816;2023-04-25T07:23:53;3.15;;;2.05;;
79566;SDS011;69030;48.126;7.816;2023-04-25T07:26:19;3.28;;;2.17;;
79566;SDS011;69030;48.126;7.816;2023-04-25T07:28:45;3.17;;;2.22;;
79566;SDS011;69030;48.126;7.816;2023-04-25T07:31:14;3.28;;;2.47;;
79566;SDS011;69030;48.126;7.816;2023-04-25T07:33:42;3.05;;;2.63;;
79566;SDS011;69030;48.126;7.816;2023-04-25T07:36:07;2.65;;;1.83;;
79566;SDS011;69030;48.126;7.816;2023-04-25T07:38:33;3.00;;;2.10;;
79566;SDS011;69030;48.126;7.816;2023-04-25T07:40:58;3.95;;;3.65;;
79566;SDS011;69030;48.126;7.816;2023-04-25T07:43:23;3.90;;;2.97;;
79566;SDS011;69030;48.126;7.816;2023-04-25T07:45:49;3.63;;;2.78;;
79566;SDS011;69030;48.126;7.816;2023-04-25T07:48:17;3.35;;;0.93;;
79566;SDS011;69030;48.126;7.816;2023-04-25T07:50:45;2.90;;;1.73;;
79566;SDS011;69030;48.126;7.816;2023-04-25T07:53:11;4.57;;;2.38;;
79566;SDS011;69030;48.126;7.816;2023-04-25T07:55:36;2.40;;;1.73;;
79566;SDS011;69030;48.126;7.816;2023-04-25T07:58:05;4.13;;;2.45;;
79566;SDS011;69030;48.126;7.816;2023-04-25T08:00:33;3.28;;;2.10;;
79566;SDS011;69030;48.126;7.816;2023-04-25T08:02:58;2.47;;;2.25;;
79566;SDS011;69030;48.126;7.816;2023-04-25T08:05:23;3.13;;;2.30;;
79566;SDS011;69030;48.126;7.816;2023-04-25T08:07:49;3.17;;;2.38;;
79566;SDS011;69030;48.126;7.816;2023-04-25T08:10:15;2.13;;;1.88;;
79566;SDS011;69030;48.126;7.816;2023-04-25T08:12:40;2.53;;;2.13;;
79566;SDS011;69030;48.126;7.816;2023-04-25T08:15:06;1.88;;;1.77;;
79566;SDS011;69030;48.126;7.816;2023-04-25T08:17:32;2.83;;;2.63;;
79566;SDS011;69030;48.126;7.816;2023-04-25T08:19:57;1.88;;;1.67;;
79566;SDS011;69030;48.126;7.816;2023-04-25T08:22:22;3.00;;;2.40;;
79566;SDS011;69030;48.126;7.816;2023-04-25T08:24:48;2.10;;;1.83;;
79566;SDS011;69030;48.126;7.816;2023-04-25T08:27:13;2.33;;;2.13;;
79566;SDS011;69030;48.126;7.816;2023-04-25T08:29:39;1.92;;;1.75;;
79566;SDS011;69030;48.126;7.816;2023-04-25T08:32:04;2.80;;;1.77;;
79566;SDS011;69030;48.126;7.816;2023-04-25T08:34:30;3.17;;;2.70;;
79566;SDS011;69030;48.126;7.816;2023-04-25T08:36:55;3.35;;;3.05;;
79566;SDS011;69030;48.126;7.816;2023-04-25T08:39:20;2.95;;;2.75;;
79566;SDS011;69030;48.126;7.816;2023-04-25T08:41:46;2.97;;;2.05;;
79566;SDS011;69030;48.126;7.816;2023-04-25T08:44:11;2.50;;;0.93;;
79566;SDS011;69030;48.126;7.816;2023-04-25T08:46:40;1.92;;;1.73;;
79566;SDS011;69030;48.126;7.816;2023-04-25T08:49:06;1.55;;;0.80;;
79566;SDS011;69030;48.126;7.816;2023-04-25T08:51:34;4.00;;;3.70;;
79566;SDS011;69030;48.126;7.816;2023-04-25T08:54:11;1.73;;;0.93;;
79566;SDS011;69030;48.126;7.816;2023-04-25T08:56:38;2.42;;;2.10;;
79566;SDS011;69030;48.126;7.816;2023-04-25T08:59:04;2.10;;;1.70;;
79566;SDS011;69030;48.126;7.816;2023-04-25T09:01:32;1.80;;;1.70;;
79566;SDS011;69030;48.126;7.816;2023-04-25T09:03:59;2.03;;;1.73;;
79566;SDS011;69030;48.126;7.816;2023-04-25T09:06:24;2.28;;;1.75;;
79566;SDS011;69030;48.126;7.816;2023-04-25T09:08:51;3.67;;;2.17;;
79566;SDS011;69030;48.126;7.816;2023-04-25T09:11:16;3.28;;;1.90;;
79566;SDS011;69030;48.126;7.816;2023-04-25T09:13:42;2.30;;;1.73;;
79566;SDS011;69030;48.126;7.816;2023-04-25T09:16:07;2.85;;;2.40;;
79566;SDS011;69030;48.126;7.816;2023-04-25T09:18:33;2.53;;;2.13;;
79566;SDS011;69030;48.126;7.816;2023-04-25T09:21:06;2.42;;;1.63;;
79566;SDS011;69030;48.126;7.816;2023-04-25T09:23:40;3.15;;;2.88;;
79566;SDS011;69030;48.126;7.816;2023-04-25T09:26:07;4.05;;;1.42;;
79566;SDS011;69030;48.126;7.816;2023-04-25T09:28:33;2.42;;;1.08;;
79566;SDS011;69030;48.126;7.816;2023-04-25T09:31:00;2.25;;;1.50;;
79566;SDS011;69030;48.126;7.816;2023-04-25T09:33:29;1.48;;;1.25;;
79566;SDS011;69030;48.126;7.816;2023-04-25T09:38:34;2.92;;;2.30;;
79566;SDS011;69030;48.126;7.816;2023-04-25T09:41:07;4.85;;;2.75;;
79566;SDS011;69030;48.126;7.816;2023-04-25T09:43:32;2.05;;;1.77;;
79566;SDS011;69030;48.126;7.816;2023-04-25T09:45:58;2.25;;;1.88;;
79566;SDS011;69030;48.126;7.816;2023-04-25T09:48:25;2.05;;;1.92;;
79566;SDS011;69030;48.126;7.816;2023-04-25T09:51:10;1.67;;;1.58;;
79566;SDS011;69030;48.126;7.816;2023-04-25T09:53:42;1.58;;;1.48;;
79566;SDS011;69030;48.126;7.816;2023-04-25T09:56:09;2.50;;;2.20;;
79566;SDS011;69030;48.126;7.816;2023-04-25T09:58:36;1.60;;;1.45;;
79566;SDS011;69030;48.126;7.816;2023-04-25T10:01:03;2.42;;;1.63;;
79566;SDS011;69030;48.126;7.816;2023-04-25T10:03:30;2.13;;;1.75;;
79566;SDS011;69030;48.126;7.816;2023-04-25T10:06:00;3.47;;;2.63;;
79566;SDS011;69030;48.126;7.816;2023-04-25T10:08:36;2.90;;;1.85;;
79566;SDS011;69030;48.126;7.816;2023-04-25T10:11:03;2.97;;;2.67;;
79566;SDS011;69030;48.126;7.816;2023-04-25T10:13:30;3.08;;;2.78;;
79566;SDS011;69030;48.126;7.816;2023-04-25T10:15:57;3.53;;;2.45;;
79566;SDS011;69030;48.126;7.816;2023-04-25T10:18:23;2.78;;;2.58;;
79566;SDS011;69030;48.126;7.816;2023-04-25T10:20:50;2.22;;;2.03;;
79566;SDS011;69030;48.126;7.816;2023-04-25T10:23:15;2.88;;;2.65;;
79566;SDS011;69030;48.126;7.816;2023-04-25T10:25:42;3.05;;;2.75;;
79566;SDS011;69030;48.126;7.816;2023-04-25T10:28:07;3.15;;;2.08;;
79566;SDS011;69030;48.126;7.816;2023-04-25T10:30:32;2.15;;;1.90;;
79566;SDS011;69030;48.126;7.816;2023-04-25T10:32:58;2.45;;;2.33;;
79566;SDS011;69030;48.126;7.816;2023-04-25T10:35:27;2.63;;;2.42;;
79566;SDS011;69030;48.126;7.816;2023-04-25T10:40:29;2.78;;;2.22;;
79566;SDS011;69030;48.126;7.816;2023-04-25T10:42:55;2.58;;;2.15;;
79566;SDS011;69030;48.126;7.816;2023-04-25T10:45:21;2.95;;;2.65;;
79566;SDS011;69030;48.126;7.816;2023-04-25T10:47:47;3.33;;;2.90;;
79566;SDS011;69030;48.126;7.816;2023-04-25T10:50:16;2.63;;;2.42;;
79566;SDS011;69030;48.126;7.816;2023-04-25T10:52:41;3.13;;;2.45;;
79566;SDS011;69030;48.126;7.816;2023-04-25T10:55:07;3.17;;;2.83;;
79566;SDS011;69030;48.126;7.816;2023-04-25T10:57:37;2.88;;;2.58;;
79566;SDS011;69030;48.126;7.816;2023-04-25T11:02:43;2.42;;;1.20;;
79566;SDS011;69030;48.126;7.816;2023-04-25T11:05:22;4.13;;;1.08;;
79566;SDS011;69030;48.126;7.816;2023-04-25T11:07:54;2.88;;;2.58;;
79566;SDS011;69030;48.126;7.816;2023-04-25T11:10:31;3.45;;;2.42;;
79566;SDS011;69030;48.126;7.816;2023-04-25T11:12:58;3.10;;;2.65;;
79566;SDS011;69030;48.126;7.816;2023-04-25T11:15:24;2.05;;;1.95;;
79566;SDS011;69030;48.126;7.816;2023-04-25T11:17:51;3.25;;;2.95;;
79566;SDS011;69030;48.126;7.816;2023-04-25T11:20:19;3.90;;;3.33;;
79566;SDS011;69030;48.126;7.816;2023-04-25T11:22:46;3.30;;;2.00;;
79566;SDS011;69030;48.126;7.816;2023-04-25T11:25:12;3.30;;;3.00;;
79566;SDS011;69030;48.126;7.816;2023-04-25T11:27:55;2.63;;;2.40;;
79566;SDS011;69030;48.126;7.816;2023-04-25T11:30:22;2.03;;;1.83;;
79566;SDS011;69030;48.126;7.816;2023-04-25T11:32:49;2.85;;;2.55;;
79566;SDS011;69030;48.126;7.816;2023-04-25T11:35:15;2.05;;;1.25;;
79566;SDS011;69030;48.126;7.816;2023-04-25T11:37:40;3.05;;;2.33;;
79566;SDS011;69030;48.126;7.816;2023-04-25T11:40:07;4.38;;;2.50;;
79566;SDS011;69030;48.126;7.816;2023-04-25T11:42:35;3.05;;;2.75;;
79566;SDS011;69030;48.126;7.816;2023-04-25T11:45:01;3.00;;;2.45;;
79566;SDS011;69030;48.126;7.816;2023-04-25T11:47:29;3.90;;;3.60;;
79566;SDS011;69030;48.126;7.816;2023-04-25T11:50:01;3.92;;;3.63;;
79566;SDS011;69030;48.126;7.816;2023-04-25T11:52:46;3.13;;;2.83;;
79566;SDS011;69030;48.126;7.816;2023-04-25T11:55:13;3.33;;;3.08;;
79566;SDS011;69030;48.126;7.816;2023-04-25T11:57:40;2.25;;;1.98;;
79566;SDS011;69030;48.126;7.816;2023-04-25T12:00:14;2.05;;;1.85;;
79566;SDS011;69030;48.126;7.816;2023-04-25T12:02:42;2.47;;;2.20;;
79566;SDS011;69030;48.126;7.816;2023-04-25T12:05:09;2.40;;;2.10;;
79566;SDS011;69030;48.126;7.816;2023-04-25T12:07:35;2.63;;;1.98;;
79566;SDS011;69030;48.126;7.816;2023-04-25T12:10:05;2.83;;;2.22;;
79566;SDS011;69030;48.126;7.816;2023-04-25T12:12:35;2.47;;;2.03;;
79566;SDS011;69030;48.126;7.816;2023-04-25T12:17:36;3.83;;;1.42;;
79566;SDS011;69030;48.126;7.816;2023-04-25T12:20:07;2.92;;;1.50;;
79566;SDS011;69030;48.126;7.816;2023-04-25T12:22:35;2.33;;;1.80;;
79566;SDS011;69030;48.126;7.816;2023-04-25T12:25:01;2.20;;;2.03;;
79566;SDS011;69030;48.126;7.816;2023-04-25T12:27:30;2.38;;;2.25;;
79566;SDS011;69030;48.126;7.816;2023-04-25T12:29:56;1.33;;;1.17;;
79566;SDS011;69030;48.126;7.816;2023-04-25T12:32:27;4.45;;;2.50;;
79566;SDS011;69030;48.126;7.816;2023-04-25T12:34:55;4.22;;;1.52;;
79566;SDS011;69030;48.126;7.816;2023-04-25T12:37:21;4.00;;;3.80;;
79566;SDS011;69030;48.126;7.816;2023-04-25T12:39:46;1.88;;;1.77;;
79566;SDS011;69030;48.126;7.816;2023-04-25T12:42:12;1.80;;;1.70;;
79566;SDS011;69030;48.126;7.816;2023-04-25T12:44:38;1.25;;;1.20;;
79566;SDS011;69030;48.126;7.816;2023-04-25T12:47:03;2.13;;;2.03;;
79566;SDS011;69030;48.126;7.816;2023-04-25T12:49:29;2.95;;;2.75;;
79566;SDS011;69030;48.126;7.816;2023-04-25T12:51:54;1.42;;;1.33;;
79566;SDS011;69030;48.126;7.816;2023-04-25T12:54:19;2.00;;;0.90;;
79566;SDS011;69030;48.126;7.816;2023-04-25T12:56:45;1.10;;;0.95;;
79566;SDS011;69030;48.126;7.816;2023-04-25T12:59:11;1.98;;;1.45;;
79566;SDS011;69030;48.126;7.816;2023-04-25T13:01:39;1.17;;;1.08;;
79566;SDS011;69030;48.126;7.816;2023-04-25T13:04:05;1.70;;;1.60;;
79566;SDS011;69030;48.126;7.816;2023-04-25T13:06:30;2.33;;;2.22;;
79566;SDS011;69030;48.126;7.816;2023-04-25T13:08:56;2.50;;;1.60;;
79566;SDS011;69030;48.126;7.816;2023-04-25T13:11:21;6.93;;;2.80;;
79566;SDS011;69030;48.126;7.816;2023-04-25T13:13:47;4.32;;;3.58;;
79566;SDS011;69030;48.126;7.816;2023-04-25T13:16:13;3.45;;;2.88;;
79566;SDS011;69030;48.126;7.816;2023-04-25T13:18:41;4.10;;;3.03;;
79566;SDS011;69030;48.126;7.816;2023-04-25T13:21:06;3.53;;;1.05;;
79566;SDS011;69030;48.126;7.816;2023-04-25T13:23:35;1.83;;;1.73;;
79566;SDS011;69030;48.126;7.816;2023-04-25T13:26:02;1.85;;;1.48;;
79566;SDS011;69030;48.126;7.816;2023-04-25T13:28:28;3.70;;;1.75;;
79566;SDS011;69030;48.126;7.816;2023-04-25T13:30:53;2.30;;;0.45;;
79566;SDS011;69030;48.126;7.816;2023-04-25T13:33:22;2.08;;;1.95;;
79566;SDS011;69030;48.126;7.816;2023-04-25T13:35:48;1.75;;;1.65;;
79566;SDS011;69030;48.126;7.816;2023-04-25T13:38:21;2.70;;;1.73;;
79566;SDS011;69030;48.126;7.816;2023-04-25T13:40:47;1.50;;;1.35;;
79566;SDS011;69030;48.126;7.816;2023-04-25T13:43:13;1.77;;;1.35;;
79566;SDS011;69030;48.126;7.816;2023-04-25T13:45:39;1.55;;;1.45;;
79566;SDS011;69030;48.126;7.816;2023-04-25T13:48:12;1.75;;;1.58;;
79566;SDS011;69030;48.126;7.816;2023-04-25T13:50:38;1.10;;;0.55;;
79566;SDS011;69030;48.126;7.816;2023-04-25T13:53:03;1.75;;;1.65;;
79566;SDS011;69030;48.126;7.816;2023-04-25T13:55:29;1.90;;;1.80;;
79566;SDS011;69030;48.126;7.816;2023-04-25T13:57:55;1.70;;;1.60;;
79566;SDS011;69030;48.126;7.816;2023-04-25T14:00:20;1.85;;;1.75;;
79566;SDS011;69030;48.126;7.816;2023-04-25T14:02:46;1.38;;;1.27;;
79566;SDS011;69030;48.126;7.816;2023-04-25T14:05:11;2.65;;;0.63;;
79566;SDS011;69030;48.126;7.816;2023-04-25T14:07:36;3.25;;;2.95;;
79566;SDS011;69030;48.126;7.816;2023-04-25T14:10:02;1.63;;;1.42;;
79566;SDS011;69030;48.126;7.816;2023-04-25T14:12:29;2.00;;;1.75;;
79566;SDS011;69030;48.126;7.816;2023-04-25T14:14:57;2.17;;;1.77;;
79566;SDS011;69030;48.126;7.816;2023-04-25T14:17:23;1.17;;;1.05;;
79566;SDS011;69030;48.126;7.816;2023-04-25T14:19:49;1.30;;;1.10;;
79566;SDS011;69030;48.126;7.816;2023-04-25T14:22:15;1.70;;;1.60;;
79566;SDS011;69030;48.126;7.816;2023-04-25T14:24:44;1.80;;;1.70;;
79566;SDS011;69030;48.126;7.816;2023-04-25T14:27:09;1.20;;;0.90;;
79566;SDS011;69030;48.126;7.816;2023-04-25T14:29:38;1.60;;;1.50;;
79566;SDS011;69030;48.126;7.816;2023-04-25T14:32:03;1.90;;;1.80;;
79566;SDS011;69030;48.126;7.816;2023-04-25T14:34:30;5.80;;;2.80;;
79566;SDS011;69030;48.126;7.816;2023-04-25T14:36:55;5.07;;;1.75;;
79566;SDS011;69030;48.126;7.816;2023-04-25T14:39:21;1.77;;;1.67;;
79566;SDS011;69030;48.126;7.816;2023-04-25T14:41:49;1.75;;;1.65;;
79566;SDS011;69030;48.126;7.816;2023-04-25T14:44:14;2.38;;;1.75;;
79566;SDS011;69030;48.126;7.816;2023-04-25T14:46:40;2.30;;;2.08;;
79566;SDS011;69030;48.126;7.816;2023-04-25T14:49:05;4.80;;;2.92;;
79566;SDS011;69030;48.126;7.816;2023-04-25T14:51:31;3.42;;;2.25;;
79566;SDS011;69030;48.126;7.816;2023-04-25T14:53:56;2.40;;;2.20;;
79566;SDS011;69030;48.126;7.816;2023-04-25T14:56:22;4.20;;;2.42;;